Hector, New York
Current Conditions -  °F | °C
As of 12:53 PM on Thursday 29 Jan 2015 (Local Time) from KPEO Reporting Station
Overcast Overcast  
Wind Chill: 20°   Ceiling: 7000
Heat Index: 31°   Visibility: 10mi
Dew Point:   Wind: 15mph
Humidity: 32%   Direction: 190°S
Pressure: 29.9"   Gusts: NA
Location:  42.5°N, 76.87°W
Report Text: KPEO 291753Z AUTO 19013KT 10SM BKN070 OVC080 M01/M16 A2990 RMK AO2 SLP139 T10061156 11006 21117 58060
Loading
Personal Weather Stations






























Interactive Weather Map New forecast layout! Learn more

10-Day Weather Forecast

Advertisements
Track Severe Weather on mobile